sensor_id;sensor_type;location;lat;lon;timestamp;pressure;altitude;pressure_sealevel;temperature;humidity
21182;BME280;10749;46.296;7.524;2023-02-17T00:00:26;96097.44;;;8.98;31.63
21182;BME280;10749;46.296;7.524;2023-02-17T00:02:56;96097.56;;;8.87;31.89
21182;BME280;10749;46.296;7.524;2023-02-17T00:05:21;96093.00;;;8.89;31.62
21182;BME280;10749;46.296;7.524;2023-02-17T00:07:47;96095.06;;;8.85;31.49
21182;BME280;10749;46.296;7.524;2023-02-17T00:10:12;96085.75;;;8.81;31.61
21182;BME280;10749;46.296;7.524;2023-02-17T00:12:37;96091.31;;;8.78;31.82
21182;BME280;10749;46.296;7.524;2023-02-17T00:15:03;96084.63;;;8.74;32.39
21182;BME280;10749;46.296;7.524;2023-02-17T00:17:28;96082.28;;;8.71;31.90
21182;BME280;10749;46.296;7.524;2023-02-17T00:19:54;96076.72;;;8.64;32.41
21182;BME280;10749;46.296;7.524;2023-02-17T00:22:21;96082.84;;;8.65;32.15
21182;BME280;10749;46.296;7.524;2023-02-17T00:24:47;96075.88;;;8.64;32.33
21182;BME280;10749;46.296;7.524;2023-02-17T00:27:12;96084.78;;;8.63;32.14
21182;BME280;10749;46.296;7.524;2023-02-17T00:29:37;96088.78;;;8.57;32.21
21182;BME280;10749;46.296;7.524;2023-02-17T00:32:03;96085.75;;;8.52;32.10
21182;BME280;10749;46.296;7.524;2023-02-17T00:34:29;96093.25;;;8.57;32.11
21182;BME280;10749;46.296;7.524;2023-02-17T00:36:54;96081.56;;;8.50;32.24
21182;BME280;10749;46.296;7.524;2023-02-17T00:39:19;96086.00;;;8.49;32.35
21182;BME280;10749;46.296;7.524;2023-02-17T00:41:45;96091.00;;;8.43;32.21
21182;BME280;10749;46.296;7.524;2023-02-17T00:44:22;96092.25;;;8.39;32.66
21182;BME280;10749;46.296;7.524;2023-02-17T00:46:48;96098.75;;;8.34;32.64
21182;BME280;10749;46.296;7.524;2023-02-17T00:49:19;96104.53;;;8.28;32.69
21182;BME280;10749;46.296;7.524;2023-02-17T00:51:45;96101.22;;;8.26;32.69
21182;BME280;10749;46.296;7.524;2023-02-17T00:54:12;96103.38;;;8.12;32.78
21182;BME280;10749;46.296;7.524;2023-02-17T00:56:37;96109.47;;;8.12;32.37
21182;BME280;10749;46.296;7.524;2023-02-17T00:59:03;96105.84;;;8.04;32.83
21182;BME280;10749;46.296;7.524;2023-02-17T01:01:29;96113.06;;;8.02;32.53
21182;BME280;10749;46.296;7.524;2023-02-17T01:03:54;96114.88;;;8.01;32.80
21182;BME280;10749;46.296;7.524;2023-02-17T01:06:23;96108.63;;;8.02;32.46
21182;BME280;10749;46.296;7.524;2023-02-17T01:08:49;96112.50;;;7.98;32.76
21182;BME280;10749;46.296;7.524;2023-02-17T01:11:22;96116.09;;;7.97;32.78
21182;BME280;10749;46.296;7.524;2023-02-17T01:13:48;96120.81;;;7.94;32.90
21182;BME280;10749;46.296;7.524;2023-02-17T01:16:17;96132.41;;;7.81;33.08
21182;BME280;10749;46.296;7.524;2023-02-17T01:18:42;96121.03;;;7.81;33.13
21182;BME280;10749;46.296;7.524;2023-02-17T01:21:18;96126.56;;;7.78;33.06
21182;BME280;10749;46.296;7.524;2023-02-17T01:23:43;96127.66;;;7.75;32.75
21182;BME280;10749;46.296;7.524;2023-02-17T01:26:15;96131.66;;;7.70;32.86
21182;BME280;10749;46.296;7.524;2023-02-17T01:28:41;96140.97;;;7.74;33.21
21182;BME280;10749;46.296;7.524;2023-02-17T01:31:08;96143.22;;;7.78;32.74
21182;BME280;10749;46.296;7.524;2023-02-17T01:33:33;96145.44;;;7.83;32.90
21182;BME280;10749;46.296;7.524;2023-02-17T01:36:03;96146.72;;;7.88;32.82
21182;BME280;10749;46.296;7.524;2023-02-17T01:38:28;96146.59;;;7.90;33.16
21182;BME280;10749;46.296;7.524;2023-02-17T01:40:54;96144.66;;;7.92;33.05
21182;BME280;10749;46.296;7.524;2023-02-17T01:43:20;96136.91;;;7.91;33.22
21182;BME280;10749;46.296;7.524;2023-02-17T01:45:50;96139.09;;;7.95;32.97
21182;BME280;10749;46.296;7.524;2023-02-17T01:48:17;96137.47;;;8.04;32.97
21182;BME280;10749;46.296;7.524;2023-02-17T01:50:59;96134.56;;;7.97;33.09
21182;BME280;10749;46.296;7.524;2023-02-17T01:53:32;96135.50;;;7.96;33.53
21182;BME280;10749;46.296;7.524;2023-02-17T01:55:59;96144.38;;;7.95;33.59
21182;BME280;10749;46.296;7.524;2023-02-17T01:58:26;96137.19;;;7.97;33.30
21182;BME280;10749;46.296;7.524;2023-02-17T02:00:54;96143.03;;;8.01;33.27
21182;BME280;10749;46.296;7.524;2023-02-17T02:03:20;96139.31;;;8.03;32.65
21182;BME280;10749;46.296;7.524;2023-02-17T02:05:46;96136.13;;;8.09;32.83
21182;BME280;10749;46.296;7.524;2023-02-17T02:08:12;96139.72;;;8.08;32.73
21182;BME280;10749;46.296;7.524;2023-02-17T02:10:38;96134.72;;;8.05;32.32
21182;BME280;10749;46.296;7.524;2023-02-17T02:13:03;96132.81;;;8.07;32.63
21182;BME280;10749;46.296;7.524;2023-02-17T02:15:56;96135.28;;;8.09;32.87
21182;BME280;10749;46.296;7.524;2023-02-17T02:18:48;96130.56;;;8.12;32.88
21182;BME280;10749;46.296;7.524;2023-02-17T02:24:01;96131.81;;;8.08;33.67
21182;BME280;10749;46.296;7.524;2023-02-17T02:29:56;96124.47;;;8.12;33.74
21182;BME280;10749;46.296;7.524;2023-02-17T02:32:38;96128.78;;;8.13;33.66
21182;BME280;10749;46.296;7.524;2023-02-17T02:37:57;96124.91;;;8.17;33.39
21182;BME280;10749;46.296;7.524;2023-02-17T02:40:28;96126.03;;;8.14;33.63
21182;BME280;10749;46.296;7.524;2023-02-17T02:42:55;96126.84;;;8.15;33.95
21182;BME280;10749;46.296;7.524;2023-02-17T02:45:21;96128.38;;;8.17;33.76
21182;BME280;10749;46.296;7.524;2023-02-17T02:47:50;96124.66;;;8.20;33.73
21182;BME280;10749;46.296;7.524;2023-02-17T02:50:20;96128.09;;;8.20;34.31
21182;BME280;10749;46.296;7.524;2023-02-17T02:55:52;96128.69;;;8.24;34.06
21182;BME280;10749;46.296;7.524;2023-02-17T03:01:03;96124.44;;;8.32;33.94
21182;BME280;10749;46.296;7.524;2023-02-17T03:06:08;96119.31;;;8.31;34.36
21182;BME280;10749;46.296;7.524;2023-02-17T03:08:43;96121.78;;;8.32;34.49
21182;BME280;10749;46.296;7.524;2023-02-17T03:11:11;96120.13;;;8.31;34.18
21182;BME280;10749;46.296;7.524;2023-02-17T03:13:36;96116.66;;;8.31;34.35
21182;BME280;10749;46.296;7.524;2023-02-17T03:16:05;96120.13;;;8.31;34.56
21182;BME280;10749;46.296;7.524;2023-02-17T03:18:31;96117.34;;;8.33;34.39
21182;BME280;10749;46.296;7.524;2023-02-17T03:21:02;96114.88;;;8.31;34.50
21182;BME280;10749;46.296;7.524;2023-02-17T03:23:28;96118.19;;;8.33;34.02
21182;BME280;10749;46.296;7.524;2023-02-17T03:25:54;96115.94;;;8.29;34.24
21182;BME280;10749;46.296;7.524;2023-02-17T03:28:19;96118.00;;;8.25;34.65
21182;BME280;10749;46.296;7.524;2023-02-17T03:30:44;96123.97;;;8.27;34.35
21182;BME280;10749;46.296;7.524;2023-02-17T03:33:10;96110.91;;;8.26;34.00
21182;BME280;10749;46.296;7.524;2023-02-17T03:35:35;96113.00;;;8.22;34.40
21182;BME280;10749;46.296;7.524;2023-02-17T03:38:01;96120.91;;;8.22;33.96
21182;BME280;10749;46.296;7.524;2023-02-17T03:40:27;96116.78;;;8.29;34.08
21182;BME280;10749;46.296;7.524;2023-02-17T03:42:52;96119.53;;;8.28;34.23
21182;BME280;10749;46.296;7.524;2023-02-17T03:45:18;96122.63;;;8.33;34.48
21182;BME280;10749;46.296;7.524;2023-02-17T03:47:43;96125.13;;;8.34;33.79
21182;BME280;10749;46.296;7.524;2023-02-17T03:50:08;96115.94;;;8.29;33.57
21182;BME280;10749;46.296;7.524;2023-02-17T03:52:34;96125.06;;;8.25;33.81
21182;BME280;10749;46.296;7.524;2023-02-17T03:54:59;96115.31;;;8.16;33.92
21182;BME280;10749;46.296;7.524;2023-02-17T03:57:25;96118.41;;;8.21;34.04
21182;BME280;10749;46.296;7.524;2023-02-17T03:59:50;96124.78;;;8.18;34.24
21182;BME280;10749;46.296;7.524;2023-02-17T04:02:15;96124.50;;;8.21;34.46
21182;BME280;10749;46.296;7.524;2023-02-17T04:04:40;96124.22;;;8.24;34.29
21182;BME280;10749;46.296;7.524;2023-02-17T04:07:06;96123.63;;;8.32;34.56
21182;BME280;10749;46.296;7.524;2023-02-17T04:09:31;96123.47;;;8.33;34.09
21182;BME280;10749;46.296;7.524;2023-02-17T04:11:56;96122.09;;;8.39;33.76
21182;BME280;10749;46.296;7.524;2023-02-17T04:14:21;96126.09;;;8.33;34.28
21182;BME280;10749;46.296;7.524;2023-02-17T04:16:47;96122.78;;;8.31;34.27
21182;BME280;10749;46.296;7.524;2023-02-17T04:19:12;96120.13;;;8.31;34.81
21182;BME280;10749;46.296;7.524;2023-02-17T04:21:37;96123.47;;;8.33;34.55
21182;BME280;10749;46.296;7.524;2023-02-17T04:24:03;96122.78;;;8.31;34.59
21182;BME280;10749;46.296;7.524;2023-02-17T04:26:28;96116.50;;;8.32;34.89
21182;BME280;10749;46.296;7.524;2023-02-17T04:28:54;96121.78;;;8.32;34.30
21182;BME280;10749;46.296;7.524;2023-02-17T04:31:19;96120.13;;;8.31;33.69
21182;BME280;10749;46.296;7.524;2023-02-17T04:33:44;96123.97;;;8.27;33.07
21182;BME280;10749;46.296;7.524;2023-02-17T04:36:10;96129.50;;;8.24;32.93
21182;BME280;10749;46.296;7.524;2023-02-17T04:38:36;96133.53;;;8.19;33.10
21182;BME280;10749;46.296;7.524;2023-02-17T04:41:02;96125.88;;;8.16;33.26
21182;BME280;10749;46.296;7.524;2023-02-17T04:43:28;96120.03;;;8.12;33.89
21182;BME280;10749;46.296;7.524;2023-02-17T04:45:54;96122.25;;;8.07;34.06
21182;BME280;10749;46.296;7.524;2023-02-17T04:48:19;96121.53;;;8.05;34.19
21182;BME280;10749;46.296;7.524;2023-02-17T04:50:45;96120.59;;;8.06;34.51
21182;BME280;10749;46.296;7.524;2023-02-17T04:53:11;96118.63;;;8.08;33.49
21182;BME280;10749;46.296;7.524;2023-02-17T04:55:38;96116.97;;;8.07;33.01
21182;BME280;10749;46.296;7.524;2023-02-17T04:58:03;96118.91;;;8.05;33.42
21182;BME280;10749;46.296;7.524;2023-02-17T05:00:28;96120.31;;;8.09;33.23
21182;BME280;10749;46.296;7.524;2023-02-17T05:02:54;96119.19;;;8.12;33.39
21182;BME280;10749;46.296;7.524;2023-02-17T05:05:20;96124.47;;;8.12;33.52
21182;BME280;10749;46.296;7.524;2023-02-17T05:07:45;96122.81;;;8.11;33.86
21182;BME280;10749;46.296;7.524;2023-02-17T05:10:13;96123.66;;;8.11;34.04
21182;BME280;10749;46.296;7.524;2023-02-17T05:12:39;96122.81;;;8.11;33.96
21182;BME280;10749;46.296;7.524;2023-02-17T05:15:06;96121.97;;;8.10;33.61
21182;BME280;10749;46.296;7.524;2023-02-17T05:17:31;96128.22;;;8.09;33.77
21182;BME280;10749;46.296;7.524;2023-02-17T05:19:57;96120.03;;;8.03;34.00
21182;BME280;10749;46.296;7.524;2023-02-17T05:22:22;96125.69;;;8.08;34.11
21182;BME280;10749;46.296;7.524;2023-02-17T05:24:47;96123.66;;;8.11;34.28
21182;BME280;10749;46.296;7.524;2023-02-17T05:27:13;96121.72;;;8.13;34.41
21182;BME280;10749;46.296;7.524;2023-02-17T05:29:38;96124.78;;;8.18;34.96
21182;BME280;10749;46.296;7.524;2023-02-17T05:32:03;96123.66;;;8.21;34.79
21182;BME280;10749;46.296;7.524;2023-02-17T05:34:29;96121.75;;;8.23;34.69
21182;BME280;10749;46.296;7.524;2023-02-17T05:36:54;96121.22;;;8.29;34.13
21182;BME280;10749;46.296;7.524;2023-02-17T05:39:19;96125.06;;;8.25;33.20
21182;BME280;10749;46.296;7.524;2023-02-17T05:41:45;96125.88;;;8.16;33.33
21182;BME280;10749;46.296;7.524;2023-02-17T05:44:10;96122.25;;;8.07;33.04
21182;BME280;10749;46.296;7.524;2023-02-17T05:46:35;96128.31;;;7.98;33.99
21182;BME280;10749;46.296;7.524;2023-02-17T05:49:00;96123.28;;;7.95;34.10
21182;BME280;10749;46.296;7.524;2023-02-17T05:51:26;96126.38;;;8.00;33.83
21182;BME280;10749;46.296;7.524;2023-02-17T05:53:51;96134.03;;;8.03;33.95
21182;BME280;10749;46.296;7.524;2023-02-17T05:56:16;96123.16;;;7.97;34.04
21182;BME280;10749;46.296;7.524;2023-02-17T05:58:42;96136.06;;;8.00;34.40
21182;BME280;10749;46.296;7.524;2023-02-17T06:01:10;96127.59;;;7.96;34.61
21182;BME280;10749;46.296;7.524;2023-02-17T06:03:36;96127.38;;;7.99;34.55
21182;BME280;10749;46.296;7.524;2023-02-17T06:06:02;96139.09;;;7.95;34.59
21182;BME280;10749;46.296;7.524;2023-02-17T06:08:28;96143.69;;;7.93;34.14
21182;BME280;10749;46.296;7.524;2023-02-17T06:10:54;96136.28;;;7.87;34.63
21182;BME280;10749;46.296;7.524;2023-02-17T06:13:20;96139.09;;;7.85;34.94
21182;BME280;10749;46.296;7.524;2023-02-17T06:15:45;96145.44;;;7.83;35.12
21182;BME280;10749;46.296;7.524;2023-02-17T06:18:11;96147.94;;;7.84;35.16
21182;BME280;10749;46.296;7.524;2023-02-17T06:20:36;96147.69;;;7.87;34.81
21182;BME280;10749;46.296;7.524;2023-02-17T06:23:01;96146.44;;;7.82;34.75
21182;BME280;10749;46.296;7.524;2023-02-17T06:25:27;96149.34;;;7.88;34.72
21182;BME280;10749;46.296;7.524;2023-02-17T06:27:52;96150.59;;;7.84;34.82
21182;BME280;10749;46.296;7.524;2023-02-17T06:30:18;96155.03;;;7.84;35.05
21182;BME280;10749;46.296;7.524;2023-02-17T06:32:44;96150.28;;;7.78;34.87
21182;BME280;10749;46.296;7.524;2023-02-17T06:35:09;96155.13;;;7.73;35.58
21182;BME280;10749;46.296;7.524;2023-02-17T06:37:34;96155.13;;;7.73;35.32
21182;BME280;10749;46.296;7.524;2023-02-17T06:39:59;96153.03;;;7.76;34.79
21182;BME280;10749;46.296;7.524;2023-02-17T06:42:25;96168.47;;;7.81;34.68
21182;BME280;10749;46.296;7.524;2023-02-17T06:44:50;96154.38;;;7.71;35.04
21182;BME280;10749;46.296;7.524;2023-02-17T06:47:15;96161.59;;;7.69;35.26
21182;BME280;10749;46.296;7.524;2023-02-17T06:49:41;96157.03;;;7.71;35.40
21182;BME280;10749;46.296;7.524;2023-02-17T06:52:06;96148.63;;;7.77;35.06
21182;BME280;10749;46.296;7.524;2023-02-17T06:54:32;96163.19;;;7.81;35.04
21182;BME280;10749;46.296;7.524;2023-02-17T06:56:57;96161.97;;;7.85;34.73
21182;BME280;10749;46.296;7.524;2023-02-17T06:59:22;96166.41;;;7.84;35.02
21182;BME280;10749;46.296;7.524;2023-02-17T07:01:47;96162.09;;;7.83;35.15
21182;BME280;10749;46.296;7.524;2023-02-17T07:04:14;96166.97;;;7.88;35.42
21182;BME280;10749;46.296;7.524;2023-02-17T07:06:40;96172.63;;;7.83;35.44
21182;BME280;10749;46.296;7.524;2023-02-17T07:09:05;96177.66;;;7.86;35.70
21182;BME280;10749;46.296;7.524;2023-02-17T07:11:30;96174.88;;;7.88;35.94
21182;BME280;10749;46.296;7.524;2023-02-17T07:13:57;96178.81;;;7.94;35.63
21182;BME280;10749;46.296;7.524;2023-02-17T07:16:22;96184.53;;;7.99;35.94
21182;BME280;10749;46.296;7.524;2023-02-17T07:18:48;96189.13;;;8.06;35.54
21182;BME280;10749;46.296;7.524;2023-02-17T07:21:14;96199.47;;;8.19;35.41
21182;BME280;10749;46.296;7.524;2023-02-17T07:23:39;96192.13;;;8.22;35.14
21182;BME280;10749;46.296;7.524;2023-02-17T07:26:06;96193.41;;;8.28;34.75
21182;BME280;10749;46.296;7.524;2023-02-17T07:28:35;96186.09;;;8.31;34.16
21182;BME280;10749;46.296;7.524;2023-02-17T07:31:12;96187.63;;;8.34;34.47
21182;BME280;10749;46.296;7.524;2023-02-17T07:33:38;96197.06;;;8.37;34.85
21182;BME280;10749;46.296;7.524;2023-02-17T07:36:09;96194.84;;;8.42;34.77
21182;BME280;10749;46.296;7.524;2023-02-17T07:38:35;96189.56;;;8.42;35.32
21182;BME280;10749;46.296;7.524;2023-02-17T07:41:12;96190.56;;;8.50;35.32
21182;BME280;10749;46.296;7.524;2023-02-17T07:43:38;96198.81;;;8.57;35.39
21182;BME280;10749;46.296;7.524;2023-02-17T07:46:04;96203.53;;;8.63;35.40
21182;BME280;10749;46.296;7.524;2023-02-17T07:48:29;96199.97;;;8.73;35.04
21182;BME280;10749;46.296;7.524;2023-02-17T07:50:55;96195.78;;;8.71;35.50
21182;BME280;10749;46.296;7.524;2023-02-17T07:53:21;96203.69;;;8.71;35.69
21182;BME280;10749;46.296;7.524;2023-02-17T07:55:46;96209.41;;;8.76;35.35
21182;BME280;10749;46.296;7.524;2023-02-17T07:58:11;96206.38;;;8.80;35.78
21182;BME280;10749;46.296;7.524;2023-02-17T08:00:37;96209.00;;;8.80;35.84
21182;BME280;10749;46.296;7.524;2023-02-17T08:03:02;96212.19;;;8.84;35.62
21182;BME280;10749;46.296;7.524;2023-02-17T08:05:27;96224.44;;;8.85;35.78
21182;BME280;10749;46.296;7.524;2023-02-17T08:07:53;96220.84;;;8.86;36.06
21182;BME280;10749;46.296;7.524;2023-02-17T08:10:38;96223.88;;;8.91;35.87
21182;BME280;10749;46.296;7.524;2023-02-17T08:13:24;96218.34;;;8.94;36.13
21182;BME280;10749;46.296;7.524;2023-02-17T08:15:49;96222.63;;;8.95;36.16
21182;BME280;10749;46.296;7.524;2023-02-17T08:18:14;96230.44;;;8.97;35.88
21182;BME280;10749;46.296;7.524;2023-02-17T08:20:40;96227.50;;;9.00;36.03
21182;BME280;10749;46.296;7.524;2023-02-17T08:23:05;96221.16;;;9.02;36.09
21182;BME280;10749;46.296;7.524;2023-02-17T08:25:32;96216.41;;;8.96;36.21
21182;BME280;10749;46.296;7.524;2023-02-17T08:27:58;96222.78;;;9.03;36.16
21182;BME280;10749;46.296;7.524;2023-02-17T08:30:23;96225.59;;;9.11;36.31
21182;BME280;10749;46.296;7.524;2023-02-17T08:32:48;96212.81;;;9.16;36.09
21182;BME280;10749;46.296;7.524;2023-02-17T08:35:14;96213.94;;;9.33;36.20
21182;BME280;10749;46.296;7.524;2023-02-17T08:37:39;96211.28;;;9.43;35.93
21182;BME280;10749;46.296;7.524;2023-02-17T08:40:05;96214.75;;;9.53;36.12
21182;BME280;10749;46.296;7.524;2023-02-17T08:42:31;96215.59;;;9.53;36.38
21182;BME280;10749;46.296;7.524;2023-02-17T08:44:56;96212.25;;;9.61;36.17
21182;BME280;10749;46.296;7.524;2023-02-17T08:47:21;96209.47;;;9.72;36.10
21182;BME280;10749;46.296;7.524;2023-02-17T08:49:47;96211.94;;;9.73;35.90
21182;BME280;10749;46.296;7.524;2023-02-17T08:52:12;96212.38;;;9.79;36.37
21182;BME280;10749;46.296;7.524;2023-02-17T08:54:37;96209.44;;;9.82;35.85
21182;BME280;10749;46.296;7.524;2023-02-17T08:57:03;96203.03;;;9.84;35.65
21182;BME280;10749;46.296;7.524;2023-02-17T08:59:29;96208.34;;;9.84;35.81
21182;BME280;10749;46.296;7.524;2023-02-17T09:01:54;96205.25;;;9.89;36.04
21182;BME280;10749;46.296;7.524;2023-02-17T09:04:20;96198.84;;;9.91;35.82
21182;BME280;10749;46.296;7.524;2023-02-17T09:06:48;96204.84;;;9.93;36.00
21182;BME280;10749;46.296;7.524;2023-02-17T09:09:15;96201.91;;;9.96;35.90
21182;BME280;10749;46.296;7.524;2023-02-17T09:11:41;96201.72;;;10.07;35.90
21182;BME280;10749;46.296;7.524;2023-02-17T09:14:07;96196.31;;;10.09;35.73
21182;BME280;10749;46.296;7.524;2023-02-17T09:16:33;96193.50;;;10.20;35.84
21182;BME280;10749;46.296;7.524;2023-02-17T09:18:58;96197.78;;;10.31;36.01
21182;BME280;10749;46.296;7.524;2023-02-17T09:21:24;96196.34;;;10.46;35.57
21182;BME280;10749;46.296;7.524;2023-02-17T09:23:49;96201.00;;;10.61;36.00
21182;BME280;10749;46.296;7.524;2023-02-17T09:26:16;96194.91;;;10.79;36.02
21182;BME280;10749;46.296;7.524;2023-02-17T09:28:41;96198.56;;;10.95;35.49
21182;BME280;10749;46.296;7.524;2023-02-17T09:31:12;96192.53;;;11.03;35.47
21182;BME280;10749;46.296;7.524;2023-02-17T09:33:39;96199.66;;;11.20;35.43
21182;BME280;10749;46.296;7.524;2023-02-17T09:36:06;96201.56;;;11.28;35.70
21182;BME280;10749;46.296;7.524;2023-02-17T09:38:32;96206.78;;;11.37;35.53
21182;BME280;10749;46.296;7.524;2023-02-17T09:41:25;96206.09;;;11.53;35.60
21182;BME280;10749;46.296;7.524;2023-02-17T09:43:51;96204.88;;;11.65;35.40
21182;BME280;10749;46.296;7.524;2023-02-17T09:46:40;96201.56;;;11.63;35.50
21182;BME280;10749;46.296;7.524;2023-02-17T09:49:15;96203.66;;;11.59;35.29
21182;BME280;10749;46.296;7.524;2023-02-17T09:51:44;96204.66;;;11.58;34.96
21182;BME280;10749;46.296;7.524;2023-02-17T09:54:23;96196.53;;;11.60;35.13
21182;BME280;10749;46.296;7.524;2023-02-17T09:56:53;96208.50;;;11.64;34.99
21182;BME280;10749;46.296;7.524;2023-02-17T09:59:26;96203.19;;;11.64;35.03
21182;BME280;10749;46.296;7.524;2023-02-17T10:01:54;96205.50;;;11.77;35.08
21182;BME280;10749;46.296;7.524;2023-02-17T10:04:33;96207.38;;;11.84;34.93
21182;BME280;10749;46.296;7.524;2023-02-17T10:07:06;96205.31;;;11.96;35.06
21182;BME280;10749;46.296;7.524;2023-02-17T10:09:36;96206.16;;;11.96;35.20
21182;BME280;10749;46.296;7.524;2023-02-17T10:12:31;96203.19;;;11.99;34.66
21182;BME280;10749;46.296;7.524;2023-02-17T10:17:48;96215.34;;;12.10;34.72
21182;BME280;10749;46.296;7.524;2023-02-17T10:20:19;96214.94;;;12.23;34.55
21182;BME280;10749;46.296;7.524;2023-02-17T10:22:50;96206.72;;;12.34;34.64
21182;BME280;10749;46.296;7.524;2023-02-17T10:25:20;96216.38;;;12.43;34.98
21182;BME280;10749;46.296;7.524;2023-02-17T10:28:07;96218.78;;;12.54;34.91
21182;BME280;10749;46.296;7.524;2023-02-17T10:30:39;96218.13;;;12.60;34.69
21182;BME280;10749;46.296;7.524;2023-02-17T10:33:25;96217.34;;;12.68;34.67
21182;BME280;10749;46.296;7.524;2023-02-17T10:36:23;96209.25;;;12.77;34.53
21182;BME280;10749;46.296;7.524;2023-02-17T10:38:58;96214.53;;;12.69;34.24
21182;BME280;10749;46.296;7.524;2023-02-17T10:41:32;96206.56;;;12.69;34.58
21182;BME280;10749;46.296;7.524;2023-02-17T10:43:59;96214.06;;;12.74;34.75
21182;BME280;10749;46.296;7.524;2023-02-17T10:46:28;96216.94;;;12.88;34.82
21182;BME280;10749;46.296;7.524;2023-02-17T10:48:56;96212.88;;;13.10;34.71
21182;BME280;10749;46.296;7.524;2023-02-17T10:51:27;96208.09;;;13.22;34.34
21182;BME280;10749;46.296;7.524;2023-02-17T10:54:30;96203.97;;;13.27;34.58
21182;BME280;10749;46.296;7.524;2023-02-17T10:56:50;96204.13;;;13.42;34.36
21182;BME280;10749;46.296;7.524;2023-02-17T10:59:23;96204.16;;;13.58;34.58
21182;BME280;10749;46.296;7.524;2023-02-17T11:01:50;96206.84;;;13.66;34.37
21182;BME280;10749;46.296;7.524;2023-02-17T11:04:16;96201.84;;;13.79;34.31
21182;BME280;10749;46.296;7.524;2023-02-17T11:06:52;96194.19;;;13.93;34.47
21182;BME280;10749;46.296;7.524;2023-02-17T11:12:13;96197.81;;;14.00;34.43
21182;BME280;10749;46.296;7.524;2023-02-17T11:14:44;96183.19;;;14.12;34.03
21182;BME280;10749;46.296;7.524;2023-02-17T11:17:19;96183.16;;;14.28;34.29
21182;BME280;10749;46.296;7.524;2023-02-17T11:19:59;96180.81;;;14.25;33.78
21182;BME280;10749;46.296;7.524;2023-02-17T11:22:34;96178.69;;;14.37;33.74
21182;BME280;10749;46.296;7.524;2023-02-17T11:25:07;96164.81;;;14.41;33.76
21182;BME280;10749;46.296;7.524;2023-02-17T11:27:54;96156.53;;;14.36;33.97
21182;BME280;10749;46.296;7.524;2023-02-17T11:30:20;96151.00;;;14.46;34.03
21182;BME280;10749;46.296;7.524;2023-02-17T11:32:46;96142.78;;;14.63;33.96
21182;BME280;10749;46.296;7.524;2023-02-17T11:38:20;96134.97;;;15.23;33.84
21182;BME280;10749;46.296;7.524;2023-02-17T11:41:06;96131.47;;;15.23;33.58
21182;BME280;10749;46.296;7.524;2023-02-17T11:43:33;96119.06;;;15.30;33.66
21182;BME280;10749;46.296;7.524;2023-02-17T11:46:37;96111.50;;;15.64;33.88
21182;BME280;10749;46.296;7.524;2023-02-17T11:52:18;96106.97;;;16.17;33.49
21182;BME280;10749;46.296;7.524;2023-02-17T11:57:41;96105.38;;;16.81;33.38
21182;BME280;10749;46.296;7.524;2023-02-17T12:00:26;96109.09;;;17.16;33.25
21182;BME280;10749;46.296;7.524;2023-02-17T12:03:20;96100.19;;;17.51;33.42
21182;BME280;10749;46.296;7.524;2023-02-17T12:06:16;96100.81;;;17.75;33.08
21182;BME280;10749;46.296;7.524;2023-02-17T12:11:39;96091.34;;;18.00;32.94
21182;BME280;10749;46.296;7.524;2023-02-17T12:17:05;96082.34;;;18.14;32.84
21182;BME280;10749;46.296;7.524;2023-02-17T12:20:15;96075.50;;;18.39;32.71
21182;BME280;10749;46.296;7.524;2023-02-17T12:23:02;96068.81;;;18.57;32.70
21182;BME280;10749;46.296;7.524;2023-02-17T12:25:32;96071.97;;;18.67;32.07
21182;BME280;10749;46.296;7.524;2023-02-17T12:30:59;96064.88;;;19.07;31.62
21182;BME280;10749;46.296;7.524;2023-02-17T12:36:14;96056.03;;;19.19;31.21
21182;BME280;10749;46.296;7.524;2023-02-17T12:39:04;96046.97;;;19.33;30.84
21182;BME280;10749;46.296;7.524;2023-02-17T12:41:40;96045.94;;;19.21;31.25
21182;BME280;10749;46.296;7.524;2023-02-17T12:44:45;96045.28;;;19.13;31.34
21182;BME280;10749;46.296;7.524;2023-02-17T12:47:15;96043.44;;;19.26;31.16
21182;BME280;10749;46.296;7.524;2023-02-17T12:49:56;96043.28;;;19.48;30.71
21182;BME280;10749;46.296;7.524;2023-02-17T12:52:33;96031.13;;;19.58;30.18
21182;BME280;10749;46.296;7.524;2023-02-17T12:55:13;96036.69;;;19.83;30.00
21182;BME280;10749;46.296;7.524;2023-02-17T12:57:48;96036.66;;;19.96;29.74
21182;BME280;10749;46.296;7.524;2023-02-17T13:00:41;96026.72;;;20.16;30.01
21182;BME280;10749;46.296;7.524;2023-02-17T13:03:08;96020.28;;;20.24;29.29
21182;BME280;10749;46.296;7.524;2023-02-17T13:08:15;96026.00;;;20.54;29.41
21182;BME280;10749;46.296;7.524;2023-02-17T13:10:43;96015.00;;;20.62;29.18
21182;BME280;10749;46.296;7.524;2023-02-17T13:13:24;96027.03;;;20.53;29.66
21182;BME280;10749;46.296;7.524;2023-02-17T13:18:33;96001.72;;;20.73;30.08
21182;BME280;10749;46.296;7.524;2023-02-17T13:23:40;96006.94;;;20.55;29.84
21182;BME280;10749;46.296;7.524;2023-02-17T13:28:46;95995.69;;;20.78;29.56
21182;BME280;10749;46.296;7.524;2023-02-17T13:31:18;95988.50;;;21.03;29.31
21182;BME280;10749;46.296;7.524;2023-02-17T13:33:50;95997.25;;;20.92;29.35
21182;BME280;10749;46.296;7.524;2023-02-17T13:36:19;95998.16;;;21.17;29.26
21182;BME280;10749;46.296;7.524;2023-02-17T13:41:45;95991.81;;;21.37;28.22
21182;BME280;10749;46.296;7.524;2023-02-17T13:44:23;95988.25;;;21.68;28.03
21182;BME280;10749;46.296;7.524;2023-02-17T13:46:50;95987.03;;;21.63;27.49
21182;BME280;10749;46.296;7.524;2023-02-17T13:49:22;95982.25;;;21.90;27.41
21182;BME280;10749;46.296;7.524;2023-02-17T13:51:48;95978.81;;;22.20;27.26
21182;BME280;10749;46.296;7.524;2023-02-17T13:54:13;95979.66;;;22.20;26.74
21182;BME280;10749;46.296;7.524;2023-02-17T13:56:49;95976.34;;;22.36;27.00
21182;BME280;10749;46.296;7.524;2023-02-17T13:59:16;95979.28;;;22.35;27.24
21182;BME280;10749;46.296;7.524;2023-02-17T14:01:43;95982.56;;;22.37;26.76
21182;BME280;10749;46.296;7.524;2023-02-17T14:04:22;95972.06;;;22.83;26.21
21182;BME280;10749;46.296;7.524;2023-02-17T14:06:49;95979.16;;;23.37;25.61
21182;BME280;10749;46.296;7.524;2023-02-17T14:09:27;95975.59;;;24.25;25.57
21182;BME280;10749;46.296;7.524;2023-02-17T14:11:54;95978.75;;;25.42;25.68
21182;BME280;10749;46.296;7.524;2023-02-17T14:14:23;95982.31;;;26.69;26.56